sensor_id;sensor_type;location;lat;lon;timestamp;P1;durP1;ratioP1;P2;durP2;ratioP2
19087;SDS011;9676;50.916;13.352;2022-10-16T00:02:41;9.17;;;8.47;;
19087;SDS011;9676;50.916;13.352;2022-10-16T00:05:32;9.20;;;8.50;;
19087;SDS011;9676;50.916;13.352;2022-10-16T00:08:21;9.30;;;8.60;;
19087;SDS011;9676;50.916;13.352;2022-10-16T00:11:11;8.83;;;8.23;;
19087;SDS011;9676;50.916;13.352;2022-10-16T00:14:04;8.80;;;8.20;;
19087;SDS011;9676;50.916;13.352;2022-10-16T00:16:56;9.23;;;8.53;;
19087;SDS011;9676;50.916;13.352;2022-10-16T00:19:45;8.97;;;8.33;;
19087;SDS011;9676;50.916;13.352;2022-10-16T00:22:36;9.00;;;8.40;;
19087;SDS011;9676;50.916;13.352;2022-10-16T00:25:25;9.00;;;8.30;;
19087;SDS011;9676;50.916;13.352;2022-10-16T00:28:15;8.80;;;8.20;;
19087;SDS011;9676;50.916;13.352;2022-10-16T00:31:05;9.07;;;8.43;;
19087;SDS011;9676;50.916;13.352;2022-10-16T00:33:56;8.80;;;8.20;;
19087;SDS011;9676;50.916;13.352;2022-10-16T00:36:46;8.93;;;8.33;;
19087;SDS011;9676;50.916;13.352;2022-10-16T00:39:37;9.07;;;8.37;;
19087;SDS011;9676;50.916;13.352;2022-10-16T00:42:26;8.90;;;8.30;;
19087;SDS011;9676;50.916;13.352;2022-10-16T00:45:16;8.83;;;8.23;;
19087;SDS011;9676;50.916;13.352;2022-10-16T00:48:06;9.10;;;8.50;;
19087;SDS011;9676;50.916;13.352;2022-10-16T00:51:00;8.90;;;8.30;;
19087;SDS011;9676;50.916;13.352;2022-10-16T00:53:50;8.90;;;8.30;;
19087;SDS011;9676;50.916;13.352;2022-10-16T00:56:41;8.87;;;8.27;;
19087;SDS011;9676;50.916;13.352;2022-10-16T00:59:32;9.20;;;8.50;;
19087;SDS011;9676;50.916;13.352;2022-10-16T01:02:24;8.90;;;8.30;;
19087;SDS011;9676;50.916;13.352;2022-10-16T01:05:14;9.10;;;8.40;;
19087;SDS011;9676;50.916;13.352;2022-10-16T01:08:05;8.90;;;8.30;;
19087;SDS011;9676;50.916;13.352;2022-10-16T01:11:01;9.20;;;8.50;;
19087;SDS011;9676;50.916;13.352;2022-10-16T01:13:58;8.90;;;8.30;;
19087;SDS011;9676;50.916;13.352;2022-10-16T01:16:55;9.13;;;8.50;;
19087;SDS011;9676;50.916;13.352;2022-10-16T01:19:54;9.30;;;8.60;;
19087;SDS011;9676;50.916;13.352;2022-10-16T01:23:04;8.80;;;8.20;;
19087;SDS011;9676;50.916;13.352;2022-10-16T01:29:41;9.30;;;8.60;;
19087;SDS011;9676;50.916;13.352;2022-10-16T01:32:38;8.80;;;8.20;;
19087;SDS011;9676;50.916;13.352;2022-10-16T01:35:32;8.90;;;8.30;;
19087;SDS011;9676;50.916;13.352;2022-10-16T01:38:29;8.80;;;8.20;;
19087;SDS011;9676;50.916;13.352;2022-10-16T01:41:24;8.70;;;8.10;;
19087;SDS011;9676;50.916;13.352;2022-10-16T01:44:21;8.90;;;8.30;;
19087;SDS011;9676;50.916;13.352;2022-10-16T01:47:17;8.83;;;8.23;;
19087;SDS011;9676;50.916;13.352;2022-10-16T01:50:08;8.83;;;8.23;;
19087;SDS011;9676;50.916;13.352;2022-10-16T01:52:58;8.70;;;8.10;;
19087;SDS011;9676;50.916;13.352;2022-10-16T01:55:50;8.77;;;8.17;;
19087;SDS011;9676;50.916;13.352;2022-10-16T01:58:45;8.70;;;8.10;;
19087;SDS011;9676;50.916;13.352;2022-10-16T02:01:40;9.23;;;8.53;;
19087;SDS011;9676;50.916;13.352;2022-10-16T02:04:36;9.00;;;8.40;;
19087;SDS011;9676;50.916;13.352;2022-10-16T02:07:29;8.80;;;8.20;;
19087;SDS011;9676;50.916;13.352;2022-10-16T02:10:18;8.80;;;8.20;;
19087;SDS011;9676;50.916;13.352;2022-10-16T02:13:09;8.80;;;8.20;;
19087;SDS011;9676;50.916;13.352;2022-10-16T02:16:02;8.90;;;8.30;;
19087;SDS011;9676;50.916;13.352;2022-10-16T02:18:52;8.70;;;8.10;;
19087;SDS011;9676;50.916;13.352;2022-10-16T02:21:44;8.60;;;8.00;;
19087;SDS011;9676;50.916;13.352;2022-10-16T02:24:39;9.13;;;8.33;;
19087;SDS011;9676;50.916;13.352;2022-10-16T02:27:38;8.87;;;8.27;;
19087;SDS011;9676;50.916;13.352;2022-10-16T02:30:37;8.80;;;8.20;;
19087;SDS011;9676;50.916;13.352;2022-10-16T02:33:31;8.70;;;8.10;;
19087;SDS011;9676;50.916;13.352;2022-10-16T02:36:23;8.70;;;8.10;;
19087;SDS011;9676;50.916;13.352;2022-10-16T02:39:15;8.80;;;8.20;;
19087;SDS011;9676;50.916;13.352;2022-10-16T02:42:09;8.77;;;8.17;;
19087;SDS011;9676;50.916;13.352;2022-10-16T02:44:58;8.97;;;8.37;;
19087;SDS011;9676;50.916;13.352;2022-10-16T02:47:48;8.67;;;8.10;;
19087;SDS011;9676;50.916;13.352;2022-10-16T02:50:37;8.70;;;8.10;;
19087;SDS011;9676;50.916;13.352;2022-10-16T02:53:27;9.20;;;8.50;;
19087;SDS011;9676;50.916;13.352;2022-10-16T02:56:17;8.87;;;8.27;;
19087;SDS011;9676;50.916;13.352;2022-10-16T02:59:07;8.87;;;8.27;;
19087;SDS011;9676;50.916;13.352;2022-10-16T03:01:56;8.80;;;8.20;;
19087;SDS011;9676;50.916;13.352;2022-10-16T03:04:46;8.70;;;8.10;;
19087;SDS011;9676;50.916;13.352;2022-10-16T03:07:35;8.80;;;8.20;;
19087;SDS011;9676;50.916;13.352;2022-10-16T03:10:24;8.90;;;8.30;;
19087;SDS011;9676;50.916;13.352;2022-10-16T03:13:15;8.90;;;8.30;;
19087;SDS011;9676;50.916;13.352;2022-10-16T03:16:04;9.00;;;8.30;;
19087;SDS011;9676;50.916;13.352;2022-10-16T03:18:54;9.30;;;8.50;;
19087;SDS011;9676;50.916;13.352;2022-10-16T03:21:43;8.80;;;8.20;;
19087;SDS011;9676;50.916;13.352;2022-10-16T03:24:33;9.03;;;8.40;;
19087;SDS011;9676;50.916;13.352;2022-10-16T03:27:22;8.90;;;8.20;;
19087;SDS011;9676;50.916;13.352;2022-10-16T03:30:14;8.80;;;8.20;;
19087;SDS011;9676;50.916;13.352;2022-10-16T03:33:03;8.90;;;8.30;;
19087;SDS011;9676;50.916;13.352;2022-10-16T03:35:53;9.07;;;8.40;;
19087;SDS011;9676;50.916;13.352;2022-10-16T03:38:42;9.23;;;8.43;;
19087;SDS011;9676;50.916;13.352;2022-10-16T03:41:32;9.20;;;8.50;;
19087;SDS011;9676;50.916;13.352;2022-10-16T03:44:21;8.80;;;8.20;;
19087;SDS011;9676;50.916;13.352;2022-10-16T03:47:12;8.90;;;8.30;;
19087;SDS011;9676;50.916;13.352;2022-10-16T03:50:02;8.97;;;8.37;;
19087;SDS011;9676;50.916;13.352;2022-10-16T03:52:52;9.03;;;8.43;;
19087;SDS011;9676;50.916;13.352;2022-10-16T03:55:42;8.80;;;8.20;;
19087;SDS011;9676;50.916;13.352;2022-10-16T03:58:31;9.10;;;8.50;;
19087;SDS011;9676;50.916;13.352;2022-10-16T04:01:21;8.80;;;8.20;;
19087;SDS011;9676;50.916;13.352;2022-10-16T04:04:12;8.90;;;8.30;;
19087;SDS011;9676;50.916;13.352;2022-10-16T04:07:01;9.10;;;8.40;;
19087;SDS011;9676;50.916;13.352;2022-10-16T04:09:51;8.90;;;8.30;;
19087;SDS011;9676;50.916;13.352;2022-10-16T04:12:40;9.10;;;8.30;;
19087;SDS011;9676;50.916;13.352;2022-10-16T04:15:29;8.90;;;8.30;;
19087;SDS011;9676;50.916;13.352;2022-10-16T04:18:19;8.80;;;8.20;;
19087;SDS011;9676;50.916;13.352;2022-10-16T04:21:09;8.80;;;8.20;;
19087;SDS011;9676;50.916;13.352;2022-10-16T04:23:59;8.80;;;8.20;;
19087;SDS011;9676;50.916;13.352;2022-10-16T04:26:48;8.80;;;8.20;;
19087;SDS011;9676;50.916;13.352;2022-10-16T04:29:37;8.80;;;8.20;;
19087;SDS011;9676;50.916;13.352;2022-10-16T04:32:27;9.20;;;8.50;;
19087;SDS011;9676;50.916;13.352;2022-10-16T04:35:16;8.67;;;8.10;;
19087;SDS011;9676;50.916;13.352;2022-10-16T04:38:08;9.10;;;8.40;;
19087;SDS011;9676;50.916;13.352;2022-10-16T04:40:57;8.90;;;8.30;;
19087;SDS011;9676;50.916;13.352;2022-10-16T04:43:47;8.97;;;8.37;;
19087;SDS011;9676;50.916;13.352;2022-10-16T04:46:36;8.80;;;8.20;;
19087;SDS011;9676;50.916;13.352;2022-10-16T04:49:25;9.20;;;8.30;;
19087;SDS011;9676;50.916;13.352;2022-10-16T04:52:15;8.80;;;8.20;;
19087;SDS011;9676;50.916;13.352;2022-10-16T04:55:06;8.80;;;8.20;;
19087;SDS011;9676;50.916;13.352;2022-10-16T04:57:56;9.20;;;8.50;;
19087;SDS011;9676;50.916;13.352;2022-10-16T05:00:45;8.90;;;8.30;;
19087;SDS011;9676;50.916;13.352;2022-10-16T05:03:35;8.90;;;8.30;;
19087;SDS011;9676;50.916;13.352;2022-10-16T05:06:24;8.80;;;8.20;;
19087;SDS011;9676;50.916;13.352;2022-10-16T05:09:14;8.83;;;8.23;;
19087;SDS011;9676;50.916;13.352;2022-10-16T05:12:04;8.80;;;8.20;;
19087;SDS011;9676;50.916;13.352;2022-10-16T05:14:54;8.80;;;8.20;;
19087;SDS011;9676;50.916;13.352;2022-10-16T05:17:46;8.80;;;8.20;;
19087;SDS011;9676;50.916;13.352;2022-10-16T05:20:35;8.83;;;8.23;;
19087;SDS011;9676;50.916;13.352;2022-10-16T05:23:24;8.90;;;8.30;;
19087;SDS011;9676;50.916;13.352;2022-10-16T05:26:14;8.70;;;8.10;;
19087;SDS011;9676;50.916;13.352;2022-10-16T05:29:05;8.80;;;8.20;;
19087;SDS011;9676;50.916;13.352;2022-10-16T05:31:54;8.70;;;8.10;;
19087;SDS011;9676;50.916;13.352;2022-10-16T05:34:43;8.80;;;8.20;;
19087;SDS011;9676;50.916;13.352;2022-10-16T05:37:33;8.70;;;8.10;;
19087;SDS011;9676;50.916;13.352;2022-10-16T05:40:23;8.80;;;8.20;;
19087;SDS011;9676;50.916;13.352;2022-10-16T05:43:12;8.70;;;8.10;;
19087;SDS011;9676;50.916;13.352;2022-10-16T05:46:04;8.50;;;8.00;;
19087;SDS011;9676;50.916;13.352;2022-10-16T05:48:54;8.90;;;8.30;;
19087;SDS011;9676;50.916;13.352;2022-10-16T05:51:43;8.80;;;8.20;;
19087;SDS011;9676;50.916;13.352;2022-10-16T05:54:33;8.80;;;8.20;;
19087;SDS011;9676;50.916;13.352;2022-10-16T05:57:22;8.60;;;8.00;;
19087;SDS011;9676;50.916;13.352;2022-10-16T06:00:12;8.90;;;8.10;;
19087;SDS011;9676;50.916;13.352;2022-10-16T06:03:03;8.57;;;8.07;;
19087;SDS011;9676;50.916;13.352;2022-10-16T06:05:54;8.87;;;8.20;;
19087;SDS011;9676;50.916;13.352;2022-10-16T06:08:44;8.67;;;8.07;;
19087;SDS011;9676;50.916;13.352;2022-10-16T06:11:34;8.80;;;8.20;;
19087;SDS011;9676;50.916;13.352;2022-10-16T06:14:24;8.93;;;8.30;;
19087;SDS011;9676;50.916;13.352;2022-10-16T06:17:14;8.70;;;8.10;;
19087;SDS011;9676;50.916;13.352;2022-10-16T06:20:05;8.70;;;8.10;;
19087;SDS011;9676;50.916;13.352;2022-10-16T06:22:56;8.70;;;8.10;;
19087;SDS011;9676;50.916;13.352;2022-10-16T06:25:46;8.60;;;8.00;;
19087;SDS011;9676;50.916;13.352;2022-10-16T06:28:35;8.60;;;8.00;;
19087;SDS011;9676;50.916;13.352;2022-10-16T06:31:25;8.60;;;8.00;;
19087;SDS011;9676;50.916;13.352;2022-10-16T06:34:17;8.70;;;8.10;;
19087;SDS011;9676;50.916;13.352;2022-10-16T06:37:08;9.00;;;8.30;;
19087;SDS011;9676;50.916;13.352;2022-10-16T06:39:58;8.60;;;8.00;;
19087;SDS011;9676;50.916;13.352;2022-10-16T06:42:47;8.57;;;7.97;;
19087;SDS011;9676;50.916;13.352;2022-10-16T06:45:37;8.70;;;8.10;;
19087;SDS011;9676;50.916;13.352;2022-10-16T06:48:26;8.70;;;8.10;;
19087;SDS011;9676;50.916;13.352;2022-10-16T06:51:17;8.97;;;8.33;;
19087;SDS011;9676;50.916;13.352;2022-10-16T06:54:09;8.73;;;8.13;;
19087;SDS011;9676;50.916;13.352;2022-10-16T06:56:58;8.33;;;7.80;;
19087;SDS011;9676;50.916;13.352;2022-10-16T06:59:49;8.50;;;7.90;;
19087;SDS011;9676;50.916;13.352;2022-10-16T07:02:41;8.60;;;8.00;;
19087;SDS011;9676;50.916;13.352;2022-10-16T07:05:31;8.43;;;7.83;;
19087;SDS011;9676;50.916;13.352;2022-10-16T07:08:20;8.60;;;8.00;;
19087;SDS011;9676;50.916;13.352;2022-10-16T07:11:12;8.40;;;7.83;;
19087;SDS011;9676;50.916;13.352;2022-10-16T07:14:03;8.70;;;8.10;;
19087;SDS011;9676;50.916;13.352;2022-10-16T07:16:53;8.73;;;8.13;;
19087;SDS011;9676;50.916;13.352;2022-10-16T07:19:43;8.43;;;7.83;;
19087;SDS011;9676;50.916;13.352;2022-10-16T07:22:33;8.60;;;8.00;;
19087;SDS011;9676;50.916;13.352;2022-10-16T07:25:22;9.00;;;8.30;;
19087;SDS011;9676;50.916;13.352;2022-10-16T07:28:13;8.70;;;8.10;;
19087;SDS011;9676;50.916;13.352;2022-10-16T07:31:03;8.73;;;8.10;;
19087;SDS011;9676;50.916;13.352;2022-10-16T07:33:54;8.90;;;8.20;;
19087;SDS011;9676;50.916;13.352;2022-10-16T07:36:44;8.63;;;7.93;;
19087;SDS011;9676;50.916;13.352;2022-10-16T07:39:36;9.30;;;8.50;;
19087;SDS011;9676;50.916;13.352;2022-10-16T07:42:26;8.90;;;8.20;;
19087;SDS011;9676;50.916;13.352;2022-10-16T07:45:18;8.97;;;8.27;;
19087;SDS011;9676;50.916;13.352;2022-10-16T07:48:07;8.60;;;7.90;;
19087;SDS011;9676;50.916;13.352;2022-10-16T07:50:57;9.03;;;8.23;;
19087;SDS011;9676;50.916;13.352;2022-10-16T07:53:47;8.90;;;8.10;;
19087;SDS011;9676;50.916;13.352;2022-10-16T07:56:38;8.60;;;7.90;;
19087;SDS011;9676;50.916;13.352;2022-10-16T07:59:30;8.83;;;8.13;;
19087;SDS011;9676;50.916;13.352;2022-10-16T08:02:21;8.90;;;8.20;;
19087;SDS011;9676;50.916;13.352;2022-10-16T08:05:10;8.80;;;8.10;;
19087;SDS011;9676;50.916;13.352;2022-10-16T08:08:00;8.60;;;7.90;;
19087;SDS011;9676;50.916;13.352;2022-10-16T08:10:50;9.00;;;8.20;;
19087;SDS011;9676;50.916;13.352;2022-10-16T08:13:39;8.80;;;8.10;;
19087;SDS011;9676;50.916;13.352;2022-10-16T08:16:29;8.60;;;7.90;;
19087;SDS011;9676;50.916;13.352;2022-10-16T08:19:19;8.70;;;8.00;;
19087;SDS011;9676;50.916;13.352;2022-10-16T08:22:09;9.00;;;8.20;;
19087;SDS011;9676;50.916;13.352;2022-10-16T08:25:03;8.93;;;8.13;;
19087;SDS011;9676;50.916;13.352;2022-10-16T08:27:54;9.03;;;8.23;;
19087;SDS011;9676;50.916;13.352;2022-10-16T08:30:43;8.90;;;8.20;;
19087;SDS011;9676;50.916;13.352;2022-10-16T08:33:33;9.10;;;8.30;;
19087;SDS011;9676;50.916;13.352;2022-10-16T08:36:24;8.90;;;8.20;;
19087;SDS011;9676;50.916;13.352;2022-10-16T08:39:13;8.73;;;8.03;;
19087;SDS011;9676;50.916;13.352;2022-10-16T08:45:28;8.63;;;7.93;;
19087;SDS011;9676;50.916;13.352;2022-10-16T08:48:35;8.93;;;8.23;;
19087;SDS011;9676;50.916;13.352;2022-10-16T08:51:35;8.80;;;8.10;;
19087;SDS011;9676;50.916;13.352;2022-10-16T08:54:31;9.10;;;8.30;;
19087;SDS011;9676;50.916;13.352;2022-10-16T08:57:28;8.87;;;8.17;;
19087;SDS011;9676;50.916;13.352;2022-10-16T09:00:20;8.60;;;7.80;;
19087;SDS011;9676;50.916;13.352;2022-10-16T09:03:13;8.83;;;8.03;;
19087;SDS011;9676;50.916;13.352;2022-10-16T09:06:14;8.50;;;7.80;;
19087;SDS011;9676;50.916;13.352;2022-10-16T09:09:38;8.60;;;7.90;;
19087;SDS011;9676;50.916;13.352;2022-10-16T09:12:43;8.40;;;7.70;;
19087;SDS011;9676;50.916;13.352;2022-10-16T09:15:43;8.43;;;7.73;;
19087;SDS011;9676;50.916;13.352;2022-10-16T09:18:43;8.57;;;7.87;;
19087;SDS011;9676;50.916;13.352;2022-10-16T09:21:42;8.63;;;7.93;;
19087;SDS011;9676;50.916;13.352;2022-10-16T09:24:35;8.70;;;8.00;;
19087;SDS011;9676;50.916;13.352;2022-10-16T09:27:26;8.63;;;7.90;;
19087;SDS011;9676;50.916;13.352;2022-10-16T09:30:18;12.87;;;8.30;;
19087;SDS011;9676;50.916;13.352;2022-10-16T09:33:10;8.57;;;7.87;;
19087;SDS011;9676;50.916;13.352;2022-10-16T09:36:02;8.70;;;8.00;;
19087;SDS011;9676;50.916;13.352;2022-10-16T09:39:04;8.67;;;7.97;;
19087;SDS011;9676;50.916;13.352;2022-10-16T09:41:56;8.73;;;8.03;;
19087;SDS011;9676;50.916;13.352;2022-10-16T09:44:47;8.63;;;7.93;;
19087;SDS011;9676;50.916;13.352;2022-10-16T09:47:39;8.50;;;7.80;;
19087;SDS011;9676;50.916;13.352;2022-10-16T09:50:33;8.50;;;7.80;;
19087;SDS011;9676;50.916;13.352;2022-10-16T09:53:22;8.67;;;7.97;;
19087;SDS011;9676;50.916;13.352;2022-10-16T09:56:21;9.00;;;8.30;;
19087;SDS011;9676;50.916;13.352;2022-10-16T09:59:13;8.63;;;7.93;;
19087;SDS011;9676;50.916;13.352;2022-10-16T10:02:10;8.70;;;8.00;;
19087;SDS011;9676;50.916;13.352;2022-10-16T10:05:03;8.60;;;7.90;;
19087;SDS011;9676;50.916;13.352;2022-10-16T10:07:55;8.80;;;8.00;;
19087;SDS011;9676;50.916;13.352;2022-10-16T10:10:47;8.50;;;7.90;;
19087;SDS011;9676;50.916;13.352;2022-10-16T10:13:37;8.53;;;7.83;;
19087;SDS011;9676;50.916;13.352;2022-10-16T10:16:28;8.63;;;7.93;;
19087;SDS011;9676;50.916;13.352;2022-10-16T10:19:18;8.60;;;7.90;;
19087;SDS011;9676;50.916;13.352;2022-10-16T10:22:23;8.87;;;8.17;;
19087;SDS011;9676;50.916;13.352;2022-10-16T10:25:26;10.30;;;8.50;;
19087;SDS011;9676;50.916;13.352;2022-10-16T10:31:41;8.60;;;7.90;;
19087;SDS011;9676;50.916;13.352;2022-10-16T10:34:45;8.90;;;8.20;;
19087;SDS011;9676;50.916;13.352;2022-10-16T10:37:59;8.50;;;7.80;;
19087;SDS011;9676;50.916;13.352;2022-10-16T10:41:00;8.50;;;7.80;;
19087;SDS011;9676;50.916;13.352;2022-10-16T10:44:20;8.60;;;7.90;;
19087;SDS011;9676;50.916;13.352;2022-10-16T10:47:27;8.80;;;7.93;;
19087;SDS011;9676;50.916;13.352;2022-10-16T10:50:30;8.50;;;7.80;;
19087;SDS011;9676;50.916;13.352;2022-10-16T10:53:29;8.40;;;7.80;;
19087;SDS011;9676;50.916;13.352;2022-10-16T10:56:39;8.57;;;7.93;;
19087;SDS011;9676;50.916;13.352;2022-10-16T10:59:37;8.50;;;7.90;;
19087;SDS011;9676;50.916;13.352;2022-10-16T11:02:54;8.40;;;7.70;;
19087;SDS011;9676;50.916;13.352;2022-10-16T11:05:55;8.40;;;7.70;;
19087;SDS011;9676;50.916;13.352;2022-10-16T11:08:48;8.50;;;7.80;;
19087;SDS011;9676;50.916;13.352;2022-10-16T11:11:47;8.70;;;8.00;;
19087;SDS011;9676;50.916;13.352;2022-10-16T11:14:42;8.80;;;8.10;;
19087;SDS011;9676;50.916;13.352;2022-10-16T11:17:38;8.47;;;7.80;;
19087;SDS011;9676;50.916;13.352;2022-10-16T11:20:33;8.70;;;7.90;;
19087;SDS011;9676;50.916;13.352;2022-10-16T11:23:28;8.90;;;8.00;;
19087;SDS011;9676;50.916;13.352;2022-10-16T11:26:24;8.63;;;7.93;;
19087;SDS011;9676;50.916;13.352;2022-10-16T11:29:19;8.40;;;7.70;;
19087;SDS011;9676;50.916;13.352;2022-10-16T11:32:18;8.87;;;8.10;;
19087;SDS011;9676;50.916;13.352;2022-10-16T11:35:15;8.70;;;8.00;;
19087;SDS011;9676;50.916;13.352;2022-10-16T11:38:12;8.70;;;8.00;;
19087;SDS011;9676;50.916;13.352;2022-10-16T11:41:17;8.50;;;7.80;;
19087;SDS011;9676;50.916;13.352;2022-10-16T11:44:16;9.10;;;8.30;;
19087;SDS011;9676;50.916;13.352;2022-10-16T11:47:30;8.63;;;7.93;;
19087;SDS011;9676;50.916;13.352;2022-10-16T11:50:45;8.40;;;7.70;;
19087;SDS011;9676;50.916;13.352;2022-10-16T11:53:45;8.80;;;8.10;;
19087;SDS011;9676;50.916;13.352;2022-10-16T11:56:42;8.70;;;7.70;;
19087;SDS011;9676;50.916;13.352;2022-10-16T11:59:36;8.80;;;8.10;;
19087;SDS011;9676;50.916;13.352;2022-10-16T12:02:33;8.80;;;8.10;;
19087;SDS011;9676;50.916;13.352;2022-10-16T12:05:35;10.00;;;9.10;;
19087;SDS011;9676;50.916;13.352;2022-10-16T12:08:42;9.93;;;9.03;;
19087;SDS011;9676;50.916;13.352;2022-10-16T12:11:35;9.40;;;8.60;;
19087;SDS011;9676;50.916;13.352;2022-10-16T12:14:34;9.17;;;8.37;;
19087;SDS011;9676;50.916;13.352;2022-10-16T12:17:47;9.00;;;8.20;;
19087;SDS011;9676;50.916;13.352;2022-10-16T12:20:38;8.90;;;8.10;;
19087;SDS011;9676;50.916;13.352;2022-10-16T12:23:33;8.80;;;8.10;;
19087;SDS011;9676;50.916;13.352;2022-10-16T12:26:29;8.70;;;8.00;;
19087;SDS011;9676;50.916;13.352;2022-10-16T12:29:32;8.40;;;7.70;;
19087;SDS011;9676;50.916;13.352;2022-10-16T12:32:27;8.70;;;8.00;;
19087;SDS011;9676;50.916;13.352;2022-10-16T12:35:42;8.70;;;8.00;;
19087;SDS011;9676;50.916;13.352;2022-10-16T12:38:36;8.70;;;8.00;;
19087;SDS011;9676;50.916;13.352;2022-10-16T12:41:36;9.63;;;7.90;;
19087;SDS011;9676;50.916;13.352;2022-10-16T12:44:27;9.00;;;8.20;;
19087;SDS011;9676;50.916;13.352;2022-10-16T12:47:23;8.80;;;8.10;;
19087;SDS011;9676;50.916;13.352;2022-10-16T12:50:27;8.73;;;8.03;;
19087;SDS011;9676;50.916;13.352;2022-10-16T12:53:23;8.90;;;8.20;;
19087;SDS011;9676;50.916;13.352;2022-10-16T12:56:18;8.80;;;8.10;;
19087;SDS011;9676;50.916;13.352;2022-10-16T12:59:16;8.90;;;8.20;;
19087;SDS011;9676;50.916;13.352;2022-10-16T13:06:19;8.90;;;8.20;;
19087;SDS011;9676;50.916;13.352;2022-10-16T13:09:23;10.80;;;9.80;;
19087;SDS011;9676;50.916;13.352;2022-10-16T13:12:40;10.77;;;9.77;;
19087;SDS011;9676;50.916;13.352;2022-10-16T13:15:53;11.23;;;8.90;;
19087;SDS011;9676;50.916;13.352;2022-10-16T13:18:59;16.07;;;8.60;;
19087;SDS011;9676;50.916;13.352;2022-10-16T13:22:03;9.27;;;8.47;;
19087;SDS011;9676;50.916;13.352;2022-10-16T13:25:05;8.70;;;7.90;;
19087;SDS011;9676;50.916;13.352;2022-10-16T13:28:12;8.90;;;8.00;;
19087;SDS011;9676;50.916;13.352;2022-10-16T13:31:03;8.50;;;7.80;;
19087;SDS011;9676;50.916;13.352;2022-10-16T13:34:00;8.50;;;7.80;;
19087;SDS011;9676;50.916;13.352;2022-10-16T13:36:52;8.57;;;7.90;;
19087;SDS011;9676;50.916;13.352;2022-10-16T13:39:42;8.60;;;7.90;;
19087;SDS011;9676;50.916;13.352;2022-10-16T13:42:32;8.80;;;8.10;;
19087;SDS011;9676;50.916;13.352;2022-10-16T13:45:22;8.70;;;8.00;;
19087;SDS011;9676;50.916;13.352;2022-10-16T13:48:14;8.63;;;7.93;;
19087;SDS011;9676;50.916;13.352;2022-10-16T13:51:05;9.10;;;8.30;;
19087;SDS011;9676;50.916;13.352;2022-10-16T13:54:00;8.90;;;8.20;;
19087;SDS011;9676;50.916;13.352;2022-10-16T13:56:49;8.83;;;8.13;;
19087;SDS011;9676;50.916;13.352;2022-10-16T13:59:55;9.00;;;8.30;;
19087;SDS011;9676;50.916;13.352;2022-10-16T14:02:45;8.80;;;8.10;;
19087;SDS011;9676;50.916;13.352;2022-10-16T14:05:44;8.60;;;7.90;;
19087;SDS011;9676;50.916;13.352;2022-10-16T14:08:36;8.80;;;8.10;;
19087;SDS011;9676;50.916;13.352;2022-10-16T14:11:30;8.80;;;8.10;;
19087;SDS011;9676;50.916;13.352;2022-10-16T14:14:20;8.67;;;7.97;;
19087;SDS011;9676;50.916;13.352;2022-10-16T14:17:14;9.00;;;8.20;;
19087;SDS011;9676;50.916;13.352;2022-10-16T14:20:05;9.07;;;8.37;;
19087;SDS011;9676;50.916;13.352;2022-10-16T14:23:05;8.90;;;8.10;;
19087;SDS011;9676;50.916;13.352;2022-10-16T14:26:13;9.27;;;8.47;;
19087;SDS011;9676;50.916;13.352;2022-10-16T14:29:09;9.63;;;8.80;;
19087;SDS011;9676;50.916;13.352;2022-10-16T14:32:02;9.00;;;8.30;;
19087;SDS011;9676;50.916;13.352;2022-10-16T14:34:56;9.53;;;8.63;;
19087;SDS011;9676;50.916;13.352;2022-10-16T14:37:45;8.70;;;8.00;;
19087;SDS011;9676;50.916;13.352;2022-10-16T14:40:36;9.10;;;8.30;;
19087;SDS011;9676;50.916;13.352;2022-10-16T14:43:29;9.00;;;8.20;;
19087;SDS011;9676;50.916;13.352;2022-10-16T14:46:23;8.93;;;8.23;;
19087;SDS011;9676;50.916;13.352;2022-10-16T14:49:20;8.83;;;8.13;;
19087;SDS011;9676;50.916;13.352;2022-10-16T14:52:11;8.73;;;8.03;;
19087;SDS011;9676;50.916;13.352;2022-10-16T14:55:01;9.00;;;8.20;;
19087;SDS011;9676;50.916;13.352;2022-10-16T14:57:52;8.90;;;8.20;;
19087;SDS011;9676;50.916;13.352;2022-10-16T15:00:47;8.90;;;8.20;;
19087;SDS011;9676;50.916;13.352;2022-10-16T15:03:36;8.87;;;8.10;;
19087;SDS011;9676;50.916;13.352;2022-10-16T15:06:26;9.10;;;8.30;;
19087;SDS011;9676;50.916;13.352;2022-10-16T15:09:16;9.20;;;8.40;;
19087;SDS011;9676;50.916;13.352;2022-10-16T15:12:05;8.80;;;8.10;;
19087;SDS011;9676;50.916;13.352;2022-10-16T15:14:56;9.43;;;8.40;;
19087;SDS011;9676;50.916;13.352;2022-10-16T15:17:46;8.70;;;8.00;;
19087;SDS011;9676;50.916;13.352;2022-10-16T15:20:36;8.73;;;8.03;;
19087;SDS011;9676;50.916;13.352;2022-10-16T15:23:27;9.10;;;8.30;;
19087;SDS011;9676;50.916;13.352;2022-10-16T15:26:17;8.83;;;8.13;;
19087;SDS011;9676;50.916;13.352;2022-10-16T15:29:06;9.27;;;8.47;;
19087;SDS011;9676;50.916;13.352;2022-10-16T15:31:57;9.20;;;8.40;;
19087;SDS011;9676;50.916;13.352;2022-10-16T15:34:47;9.70;;;8.80;;
19087;SDS011;9676;50.916;13.352;2022-10-16T15:37:36;10.00;;;9.10;;
19087;SDS011;9676;50.916;13.352;2022-10-16T15:40:25;9.80;;;8.90;;
19087;SDS011;9676;50.916;13.352;2022-10-16T15:43:15;9.80;;;8.90;;
19087;SDS011;9676;50.916;13.352;2022-10-16T15:46:05;9.50;;;8.70;;
19087;SDS011;9676;50.916;13.352;2022-10-16T15:49:00;11.97;;;10.77;;
19087;SDS011;9676;50.916;13.352;2022-10-16T15:51:49;13.10;;;11.80;;
19087;SDS011;9676;50.916;13.352;2022-10-16T15:54:40;11.50;;;10.40;;
19087;SDS011;9676;50.916;13.352;2022-10-16T15:57:29;10.77;;;9.77;;
19087;SDS011;9676;50.916;13.352;2022-10-16T16:00:19;9.87;;;8.97;;
19087;SDS011;9676;50.916;13.352;2022-10-16T16:03:09;10.20;;;9.20;;
19087;SDS011;9676;50.916;13.352;2022-10-16T16:06:04;9.70;;;8.80;;
19087;SDS011;9676;50.916;13.352;2022-10-16T16:08:55;9.90;;;8.90;;
19087;SDS011;9676;50.916;13.352;2022-10-16T16:11:45;9.60;;;8.80;;
19087;SDS011;9676;50.916;13.352;2022-10-16T16:14:35;9.53;;;8.73;;
19087;SDS011;9676;50.916;13.352;2022-10-16T16:17:24;9.70;;;8.90;;
19087;SDS011;9676;50.916;13.352;2022-10-16T16:20:13;9.43;;;8.63;;
19087;SDS011;9676;50.916;13.352;2022-10-16T16:23:05;9.70;;;8.80;;
19087;SDS011;9676;50.916;13.352;2022-10-16T16:26:04;9.90;;;8.90;;
19087;SDS011;9676;50.916;13.352;2022-10-16T16:28:55;9.90;;;9.00;;
19087;SDS011;9676;50.916;13.352;2022-10-16T16:31:45;9.73;;;8.93;;
19087;SDS011;9676;50.916;13.352;2022-10-16T16:34:35;9.73;;;8.83;;
19087;SDS011;9676;50.916;13.352;2022-10-16T16:37:24;9.90;;;9.00;;
19087;SDS011;9676;50.916;13.352;2022-10-16T16:40:15;9.93;;;9.03;;
19087;SDS011;9676;50.916;13.352;2022-10-16T16:43:05;9.80;;;9.00;;
19087;SDS011;9676;50.916;13.352;2022-10-16T16:45:54;9.93;;;9.03;;
19087;SDS011;9676;50.916;13.352;2022-10-16T16:48:43;9.80;;;8.90;;
19087;SDS011;9676;50.916;13.352;2022-10-16T16:51:34;10.60;;;9.57;;
19087;SDS011;9676;50.916;13.352;2022-10-16T16:54:27;12.30;;;11.00;;
19087;SDS011;9676;50.916;13.352;2022-10-16T16:57:18;13.43;;;11.93;;
19087;SDS011;9676;50.916;13.352;2022-10-16T17:00:08;13.03;;;11.63;;
19087;SDS011;9676;50.916;13.352;2022-10-16T17:02:58;13.50;;;12.10;;
19087;SDS011;9676;50.916;13.352;2022-10-16T17:05:54;12.33;;;11.07;;
19087;SDS011;9676;50.916;13.352;2022-10-16T17:08:44;11.73;;;10.53;;
19087;SDS011;9676;50.916;13.352;2022-10-16T17:11:34;11.33;;;10.23;;
19087;SDS011;9676;50.916;13.352;2022-10-16T17:14:25;11.40;;;10.30;;
19087;SDS011;9676;50.916;13.352;2022-10-16T17:17:14;11.30;;;10.20;;
19087;SDS011;9676;50.916;13.352;2022-10-16T17:20:04;10.90;;;9.80;;
19087;SDS011;9676;50.916;13.352;2022-10-16T17:22:56;10.97;;;9.87;;
19087;SDS011;9676;50.916;13.352;2022-10-16T17:25:45;10.93;;;9.93;;
19087;SDS011;9676;50.916;13.352;2022-10-16T17:28:35;10.80;;;9.80;;
19087;SDS011;9676;50.916;13.352;2022-10-16T17:31:26;11.10;;;10.00;;
19087;SDS011;9676;50.916;13.352;2022-10-16T17:34:18;11.60;;;10.50;;
19087;SDS011;9676;50.916;13.352;2022-10-16T17:37:07;12.67;;;11.00;;